createdAt,value
2022-11-29T00:00:05.148Z,12.87
2022-11-29T00:05:17.178Z,13.43
2022-11-29T00:10:20.811Z,11.37
2022-11-29T00:15:24.291Z,12.57
2022-11-29T00:20:28.999Z,12.93
2022-11-29T00:25:32.556Z,11.63
2022-11-29T00:30:36.289Z,12.37
2022-11-29T00:35:41.028Z,12.60
2022-11-29T00:40:44.522Z,11.03
2022-11-29T00:45:47.887Z,12.47
2022-11-29T00:50:52.679Z,12.73
2022-11-29T00:55:56.059Z,12.70
2022-11-29T01:00:59.426Z,12.40
2022-11-29T01:06:04.936Z,13.27
2022-11-29T01:11:09.739Z,11.13
2022-11-29T01:16:14.419Z,12.07
2022-11-29T01:21:20.423Z,12.73
2022-11-29T01:26:24.740Z,12.47
2022-11-29T01:31:29.409Z,12.00
2022-11-29T01:36:34.803Z,12.67
2022-11-29T01:41:38.728Z,12.90
2022-11-29T01:46:43.097Z,13.67
2022-11-29T01:51:50.144Z,12.83
2022-11-29T01:56:53.887Z,12.50
2022-11-29T02:02:01.726Z,12.90
2022-11-29T02:07:06.551Z,11.03
2022-11-29T02:12:16.957Z,12.20
2022-11-29T02:17:24.210Z,12.27
2022-11-29T02:22:30.444Z,13.13
2022-11-29T02:27:58.500Z,11.57
2022-11-29T02:33:23.015Z,12.20
2022-11-29T02:38:34.169Z,13.13
2022-11-29T02:44:07.883Z,12.87
2022-11-29T02:49:15.138Z,12.43
2022-11-29T02:54:24.159Z,12.73
2022-11-29T02:59:40.687Z,12.13
2022-11-29T03:04:47.315Z,12.60
2022-11-29T03:09:57.176Z,12.37
2022-11-29T03:15:05.024Z,12.60
2022-11-29T03:20:13.206Z,14.60
2022-11-29T03:25:22.709Z,13.23
2022-11-29T03:30:26.106Z,13.93
2022-11-29T03:35:34.399Z,12.97
2022-11-29T03:40:43.308Z,18.23
2022-11-29T03:45:50.079Z,15.60
2022-11-29T03:50:55.050Z,22.03
2022-11-29T03:56:01.378Z,14.00
2022-11-29T04:01:21.872Z,16.13
2022-11-29T04:06:32.822Z,13.97
2022-11-29T04:11:59.069Z,13.10
2022-11-29T04:17:17.336Z,16.10
2022-11-29T04:22:44.719Z,13.90
2022-11-29T04:27:51.652Z,14.10
2022-11-29T04:33:17.220Z,16.37
2022-11-29T04:38:29.003Z,13.73
2022-11-29T04:43:42.918Z,14.60
2022-11-29T04:49:00.519Z,14.07
2022-11-29T04:54:07.482Z,18.87
2022-11-29T04:59:15.187Z,20.57
2022-11-29T05:04:22.270Z,13.73
2022-11-29T05:09:29.343Z,14.03
2022-11-29T05:14:39.052Z,14.70
2022-11-29T05:19:49.616Z,14.53
2022-11-29T05:24:56.589Z,15.63
2022-11-29T05:30:06.646Z,16.80
2022-11-29T05:35:30.454Z,14.87
2022-11-29T05:40:41.457Z,15.37
2022-11-29T05:45:49.853Z,15.70
2022-11-29T05:50:59.642Z,16.10
2022-11-29T05:56:05.534Z,13.93
2022-11-29T06:01:15.479Z,32.93
2022-11-29T06:06:23.835Z,18.23
2022-11-29T06:11:30.055Z,16.70
2022-11-29T06:16:43.777Z,13.60
2022-11-29T06:21:52.683Z,13.97
2022-11-29T06:27:11.066Z,16.73
2022-11-29T06:32:21.853Z,15.10
2022-11-29T06:37:28.027Z,17.27
2022-11-29T06:42:31.619Z,14.43
2022-11-29T06:47:40.991Z,14.73
2022-11-29T06:52:48.335Z,14.37
2022-11-29T06:57:58.028Z,17.37
2022-11-29T07:03:11.315Z,20.10
2022-11-29T07:08:16.273Z,20.33
2022-11-29T07:13:20.226Z,24.67
2022-11-29T07:18:27.690Z,21.97
2022-11-29T07:23:34.891Z,20.83
2022-11-29T07:28:44.923Z,18.57
2022-11-29T07:33:56.023Z,17.13
2022-11-29T07:39:03.893Z,16.47
2022-11-29T07:44:09.804Z,19.67
2022-11-29T07:49:14.513Z,17.63
2022-11-29T07:54:19.435Z,16.70
2022-11-29T07:59:22.612Z,12.53
2022-11-29T08:04:27.263Z,12.77
2022-11-29T08:09:30.474Z,13.80
2022-11-29T08:14:33.778Z,13.53
2022-11-29T08:19:38.357Z,13.80
2022-11-29T08:24:41.842Z,6.40
2022-11-29T08:29:45.270Z,6.57
2022-11-29T08:34:49.924Z,6.10
2022-11-29T08:39:53.377Z,6.07
2022-11-29T08:44:56.468Z,5.40
2022-11-29T08:50:03.812Z,5.50
2022-11-29T08:55:07.501Z,6.60
2022-11-29T09:00:11.428Z,6.90
2022-11-29T09:05:16.232Z,13.60
2022-11-29T09:10:19.499Z,8.97
2022-11-29T09:15:22.683Z,7.90
2022-11-29T09:20:27.231Z,8.47
2022-11-29T09:25:30.431Z,6.87
2022-11-29T09:30:35.149Z,7.50
2022-11-29T09:35:39.845Z,6.80
2022-11-29T09:40:48.023Z,7.30
2022-11-29T09:45:54.496Z,8.77
2022-11-29T09:51:05.380Z,9.70
2022-11-29T09:56:13.356Z,8.50
2022-11-29T10:01:20.308Z,7.70
2022-11-29T10:06:27.407Z,9.03
2022-11-29T10:11:33.259Z,10.90
2022-11-29T10:16:42.399Z,9.17
2022-11-29T10:21:50.450Z,8.43
2022-11-29T10:26:54.501Z,7.93
2022-11-29T10:31:59.353Z,8.20
2022-11-29T10:37:04.055Z,8.00
2022-11-29T10:42:28.624Z,7.33
2022-11-29T10:47:32.418Z,8.10
2022-11-29T10:52:37.501Z,7.57
2022-11-29T10:58:00.799Z,8.40
2022-11-29T11:03:16.614Z,9.10
2022-11-29T11:08:21.316Z,9.10
2022-11-29T11:13:25.805Z,9.37
2022-11-29T11:18:32.395Z,10.67
2022-11-29T11:23:42.800Z,11.57
2022-11-29T11:28:50.789Z,9.23
2022-11-29T11:33:54.344Z,10.93
2022-11-29T11:38:59.665Z,12.10
2022-11-29T11:44:07.110Z,10.77
2022-11-29T11:49:25.139Z,8.03
2022-11-29T11:54:31.431Z,9.93
2022-11-29T11:59:36.870Z,11.50
2022-11-29T12:04:40.170Z,11.20
2022-11-29T12:09:46.041Z,12.33
2022-11-29T12:14:53.165Z,9.63
2022-11-29T12:20:05.552Z,8.47
2022-11-29T12:25:14.056Z,8.80
2022-11-29T12:30:17.492Z,10.83
2022-11-29T12:35:29.619Z,10.00
2022-11-29T12:40:36.776Z,10.60
2022-11-29T12:45:42.695Z,10.80
2022-11-29T12:50:51.548Z,11.40
2022-11-29T12:56:01.790Z,11.27
2022-11-29T13:01:08.931Z,11.37
2022-11-29T13:06:17.311Z,10.70
2022-11-29T13:11:23.899Z,11.33
2022-11-29T13:16:32.635Z,10.73
2022-11-29T13:21:39.055Z,12.23
2022-11-29T13:26:44.494Z,12.07
2022-11-29T13:31:48.247Z,12.43
2022-11-29T13:36:56.976Z,12.83
2022-11-29T13:42:04.936Z,12.83
2022-11-29T13:47:10.279Z,12.13
2022-11-29T13:52:22.995Z,11.67
2022-11-29T13:57:27.673Z,12.00
2022-11-29T14:02:31.871Z,9.50
2022-11-29T14:07:36.029Z,10.57
2022-11-29T14:12:42.643Z,10.90
2022-11-29T14:18:03.622Z,10.87
2022-11-29T14:23:17.367Z,11.10
2022-11-29T14:28:39.185Z,9.23
2022-11-29T14:33:53.663Z,9.67
2022-11-29T14:39:00.012Z,10.60
2022-11-29T14:44:07.853Z,12.00
2022-11-29T14:49:21.385Z,11.00
2022-11-29T14:54:24.570Z,10.73
2022-11-29T14:59:46.749Z,15.07
2022-11-29T15:04:52.715Z,12.40
2022-11-29T15:09:57.447Z,18.20
2022-11-29T15:15:05.747Z,19.13
2022-11-29T15:20:30.097Z,11.33
2022-11-29T15:25:35.113Z,14.70
2022-11-29T15:30:39.634Z,17.33
2022-11-29T15:35:48.694Z,11.73
2022-11-29T15:40:54.240Z,18.20
2022-11-29T15:45:58.004Z,14.70
2022-11-29T15:51:04.383Z,11.43
2022-11-29T15:56:12.405Z,11.67
2022-11-29T16:01:20.079Z,11.90
2022-11-29T16:06:25.631Z,12.57
2022-11-29T16:11:32.638Z,11.80
2022-11-29T16:16:36.214Z,12.53
2022-11-29T16:21:40.924Z,11.33
2022-11-29T16:26:47.472Z,12.70
2022-11-29T16:31:50.762Z,14.03
2022-11-29T16:37:01.381Z,11.10
2022-11-29T16:42:14.902Z,11.30
2022-11-29T16:47:19.857Z,12.23
2022-11-29T16:52:27.112Z,10.07
2022-11-29T16:57:32.534Z,10.07
2022-11-29T17:02:35.991Z,11.10
2022-11-29T17:07:40.932Z,11.67
2022-11-29T17:12:48.196Z,12.97
2022-11-29T17:17:51.760Z,14.53
2022-11-29T17:22:55.092Z,12.00
2022-11-29T17:27:59.736Z,10.67
2022-11-29T17:33:03.067Z,11.50
2022-11-29T17:38:06.308Z,10.80
2022-11-29T17:43:11.076Z,19.10
2022-11-29T17:48:14.363Z,13.23
2022-11-29T17:53:17.642Z,12.63
2022-11-29T17:58:22.424Z,10.23
2022-11-29T18:03:25.672Z,12.17
2022-11-29T18:08:29.419Z,41.73
2022-11-29T18:13:34.055Z,42.50
2022-11-29T18:18:38.008Z,52.63
2022-11-29T18:23:43.651Z,15.40
2022-11-29T18:28:48.425Z,10.40
2022-11-29T18:33:52.379Z,16.90
2022-11-29T18:38:57.412Z,11.70
2022-11-29T18:44:02.956Z,17.27
2022-11-29T18:49:06.736Z,9.57
2022-11-29T18:54:09.936Z,10.37
2022-11-29T18:59:16.622Z,9.30
2022-11-29T19:04:20.767Z,9.10
2022-11-29T19:09:25.757Z,8.83
2022-11-29T19:14:32.377Z,9.17
2022-11-29T19:19:55.639Z,10.90
2022-11-29T19:24:58.730Z,12.23
2022-11-29T19:30:03.353Z,6.73
2022-11-29T19:35:07.134Z,10.07
2022-11-29T19:40:11.675Z,9.47
2022-11-29T19:45:17.997Z,10.53
2022-11-29T19:50:21.552Z,10.13
2022-11-29T19:55:24.905Z,8.37
2022-11-29T20:00:30.020Z,9.20
2022-11-29T20:05:33.416Z,8.87
2022-11-29T20:10:37.042Z,8.80
2022-11-29T20:15:42.336Z,8.10
2022-11-29T20:20:45.788Z,8.37
2022-11-29T20:25:49.811Z,11.07
2022-11-29T20:30:54.736Z,9.23
2022-11-29T20:36:02.879Z,10.43
2022-11-29T20:41:13.742Z,11.83
2022-11-29T20:46:19.146Z,11.27
2022-11-29T20:51:24.729Z,39.37
2022-11-29T20:56:28.180Z,17.53
2022-11-29T21:01:33.188Z,37.03
2022-11-29T21:06:38.508Z,23.53
2022-11-29T21:11:42.146Z,31.57
2022-11-29T21:16:47.413Z,27.73
2022-11-29T21:21:56.711Z,24.97
2022-11-29T21:27:00.084Z,28.37
2022-11-29T21:32:05.369Z,23.17
2022-11-29T21:37:10.096Z,39.53
2022-11-29T21:42:13.460Z,21.30
2022-11-29T21:47:18.305Z,31.00
2022-11-29T21:52:23.036Z,32.43
2022-11-29T21:57:26.627Z,26.77
2022-11-29T22:02:31.264Z,24.17
2022-11-29T22:07:34.615Z,27.37
2022-11-29T22:12:38.063Z,38.67
2022-11-29T22:17:53.586Z,36.23
2022-11-29T22:22:58.873Z,24.47
2022-11-29T22:28:02.470Z,31.17
2022-11-29T22:33:13.123Z,23.90
2022-11-29T22:38:17.475Z,18.90
2022-11-29T22:43:20.928Z,19.30
2022-11-29T22:48:25.771Z,18.17
2022-11-29T22:53:28.999Z,19.17
2022-11-29T22:58:32.575Z,19.37
2022-11-29T23:03:38.346Z,17.70
2022-11-29T23:08:42.937Z,17.70
2022-11-29T23:13:46.259Z,16.43
2022-11-29T23:18:51.415Z,17.37
2022-11-29T23:23:56.821Z,17.23
2022-11-29T23:29:00.264Z,16.23
2022-11-29T23:34:05.566Z,16.87
2022-11-29T23:39:08.868Z,16.80
2022-11-29T23:44:12.574Z,17.73
2022-11-29T23:49:17.500Z,16.17
2022-11-29T23:54:20.818Z,16.93
2022-11-29T23:59:24.311Z,18.50
